Weather at Les Sables-d'Olonne Talmont Airport

Public forecast

Using degrees Celsius for public forecast. Weather courtesy of forecast.io.

Closest aviation weather report (METAR) to Les Sables-d'Olonne Talmont Airport

Closest report is La Roche-sur-Yon Airport, 19.6 nm (36.3 km) NE. Retrieved 2021/07/31 06:00 UTC (11 minutes ago):

LFRI 310600Z AUTO 32003KT CAVOK 14/14 Q1015 TEMPO 4500 -SHRA BKN025TCU

Closest aviation forecast (TAF) to Les Sables-d'Olonne Talmont Airport

Closest forecast is La Roche-sur-Yon Airport, 19.6 nm (36.3 km) NE. Retrieved 2021/07/31 06:21 UTC (0 seconds ago):

TAF LFRI 310500Z 3106/0106 VRB02KT 9999 BKN030 BECMG 3111/3113 29010KT TEMPO 3106/3115 4500 -SHRA BKN025TCU BECMG 0102/0104 VRB03KT